Arlington, Oregon
Current Conditions -  °F | °C
As of 12:53 PM on Tuesday 25 Nov 2014 (Local Time) from KHRI Reporting Station
Overcast Overcast  
Wind Chill: 19°   Ceiling: 9500
Heat Index: 19°   Visibility: 10mi
Dew Point:   Wind: 23mph
Humidity: 54%   Direction: 260°W
Pressure: 30.15"   Gusts: 36mph
Location:  45.72°N, 120.2°W
Report Text: KHRI 252053Z AUTO 26020G31KT 10SM BKN095 OVC110 19/09 A3015 RMK AO2 PK WND 27032/2036 SLP207 T01890094 50001
Loading
Personal Weather Stations






























Interactive Weather Map New forecast layout! Learn more

10-Day Weather Forecast

Advertisements
Track Severe Weather on mobile